Hollytree, Alabama
Current Conditions -  °F | °C
As of 4:15 PM on Sunday 25 Jan 2015 (Local Time) from K4A6 Reporting Station
Overcast Overcast  
Wind Chill: 55°   Ceiling: 6000
Heat Index: 55°   Visibility: 10mi
Dew Point: 34°   Wind: 16mph
Humidity: 44%   Direction: 240°WSW
Pressure: 29.72"   Gusts: 23mph
Location:  34.8°N, 86.25°W
Report Text: K4A6 252215Z AUTO 24014G20KT 10SM BKN060 OVC070 13/01 A2972 RMK AO2
Loading
Personal Weather Stations






























Interactive Weather Map New forecast layout! Learn more

10-Day Weather Forecast

Advertisements
Track Severe Weather on mobile